Milton, FL

1:55 PM CDT on July 24, 2016 (GMT -0500)
JnK Ranch | | Change Station

Elev 210 ft 30.76 °N, 87.05 °W | Updated 18 seconds ago

Unknown
Thunderstorm Haze
76.9 °F
Feels Like 78 °F
N
2.0
Wind Variable Wind from East
Gusts 4.0 mph

Today
High -- | Low -- °F
--% Chance of Precip.
Yesterday
High -- | Low -- °F
Precip. -- in
Pressure 30.02 in
Visibility 3.0 miles
Clouds Few 2700 ft
Scattered Clouds 3400 ft
Mostly Cloudy 4600 ft
Heat Index 78 °F
Dew Point 74 °F
Humidity 92%
Rainfall 0.02 in
Snow Depth Not available.
6:01 AM 7:47 PM
Waning Gibbous, 74% visible
SPECI KNDZ 241837Z AUTO 12013KT 3SM TS HZ FEW027 SCT034 BKN046 28/25 A3002 RMK AO2 WSHFT 1822 TSB17 T02830250 $
Pressure 30.02 in
Visibility 3.0 miles
Clouds Few 2700 ft
Scattered Clouds 3400 ft
Mostly Cloudy 4600 ft
Heat Index 78 °F
Dew Point 74 °F
Humidity 92%
Rainfall 0.02 in
Snow Depth Not available.
6:01 AM 7:47 PM
Waning Gibbous, 74% visible
SPECI KNDZ 241837Z AUTO 12013KT 3SM TS HZ FEW027 SCT034 BKN046 28/25 A3002 RMK AO2 WSHFT 1822 TSB17 T02830250 $

10-Day Weather Forecast

Almanac

Astronomy

Jul. 24, 2016 Rise Set
Actual Time
Civil Twilight
Nautical Twilight
Astronomical Twilight
Moon
Length of Visible Light
Length of Day
Tomorrow will be .
, % of the Moon is Illuminated

Today's Extremes

State Highs State Lows

Community

WunderPhotos

Upload Photos

1,927,157 photos uploaded!

WunderBlog® & News

Nearby

Air Quality

  Air Quality AQ Index Pollutant
Not available.

Snow Depth

Station Depth Elevation

Earthquake Activity

City Distance Mag. Time & Date
Minimum magnitude displayed is 2.5.

Coastal Water Temperatures

Place Temperature

Stations

Nearby Weather Stations

Station Location Temp. Windchill Dew Point Humidity Wind Precip. Elev Updated Type
                   

Watches & Warnings

There are currently no watches in effect.